This is the latest recevied weather packets stored in our database for station/object OK1FET-5. If no packets are shown the sender has not sent any weather packets the latest 10 day(s).
| Time | Temp. | Humidity | Pressure | Rain* | Wind** | Luminosity | Snow |
|---|---|---|---|---|---|---|---|
| 1777601357 | 3.89° C | 52% | 1030.1 hPa | - | - | - | - |
| 1777601064 | 4.44° C | 48% | 1030 hPa | - | - | - | - |
| 1777600770 | 4.44° C | 47% | 1030 hPa | - | - | - | - |
| 1777586663 | 10° C | 33% | 1030 hPa | - | - | - | - |
| 1777586369 | 10° C | 33% | 1029.9 hPa | - | - | - | - |
| 1777586075 | 10° C | 33% | 1030 hPa | - | - | - | - |
| 1777585781 | 10° C | 33% | 1030 hPa | - | - | - | - |
| 1777584310 | 9.44° C | 33% | 1030 hPa | - | - | - | - |
| 1777584017 | 9.44° C | 33% | 1030 hPa | - | - | - | - |
| 1777583722 | 9.44° C | 33% | 1030.1 hPa | - | - | - | - |
| 1777583134 | 9.44° C | 32% | 1030 hPa | - | - | - | - |
| 1777582840 | 9.44° C | 32% | 1030 hPa | - | - | - | - |
| 1777582546 | 10° C | 36% | 1030.1 hPa | - | - | - | - |
| 1777581958 | 10° C | 32% | 1030 hPa | - | - | - | - |
| 1777581664 | 10° C | 32% | 1030 hPa | - | - | - | - |
| 1777581370 | 10° C | 33% | 1030 hPa | - | - | - | - |
| 1777580781 | 10° C | 32% | 1030 hPa | - | - | - | - |
| 1777580193 | 10° C | 32% | 1030 hPa | - | - | - | - |
| 1777577841 | 10° C | 32% | 1029.8 hPa | - | - | - | - |
| 1777577547 | 10° C | 32% | 1029.8 hPa | - | - | - | - |
| 1777576959 | 10° C | 32% | 1029.8 hPa | - | - | - | - |
| 1777576665 | 10° C | 32% | 1029.9 hPa | - | - | - | - |
| 1777573135 | 10.56° C | 31% | 1029.7 hPa | - | - | - | - |
| 1777570487 | 12.78° C | 29% | 1029.4 hPa | - | - | - | - |
| 1777570193 | 12.78° C | 29% | 1029.3 hPa | - | - | - | - |
* Rain since midnight (hover to see other rain measurements)
** Current wind speed in m/s (hover to see current wind gust speed)